Time;durP1;ratioP1;P1;durP2;ratioP2;P2;SDS_P1;SDS_P2;PMS_P1;PMS_P2;Temp;Humidity;BMP_temperature;BMP_pressure;BME280_temperature;BME280_humidity;BME280_pressure;Samples;Min_cycle;Max_cycle;Signal;HPM_P1;HPM_P2
2021/07/24 00:01:17;;;;;;;13.77;4.07;;;;;;;20.69;71.29;99663.13;5093613;28;20039;-72
2021/07/24 00:04:02;;;;;;;8.60;3.75;;;;;;;20.67;71.36;99657.88;5097370;28;20039;-72
2021/07/24 00:06:48;;;;;;;9.43;3.85;;;;;;;20.67;71.17;99665.50;5096739;28;20528;-72
2021/07/24 00:09:34;;;;;;;10.68;3.97;;;;;;;20.65;70.99;99668.72;5110600;28;20631;-72
2021/07/24 00:12:20;;;;;;;11.93;3.90;;;;;;;20.59;71.11;99675.06;5089266;28;20495;-72
2021/07/24 00:15:06;;;;;;;12.45;3.40;;;;;;;20.57;71.30;99672.66;5104621;28;20032;-72
2021/07/24 00:17:52;;;;;;;9.82;3.40;;;;;;;20.57;71.18;99671.84;5097648;28;20048;-72
2021/07/24 00:20:38;;;;;;;11.10;3.42;;;;;;;20.59;71.47;99658.97;5106516;28;20024;-72
2021/07/24 00:23:23;;;;;;;11.00;3.42;;;;;;;20.55;71.12;99652.47;5116949;28;20099;-72
2021/07/24 00:26:13;;;;;;;10.27;3.33;;;;;;;20.49;71.28;99666.06;5113029;28;20701;-72
2021/07/24 00:29:00;;;;;;;11.73;3.30;;;;;;;20.50;70.94;99664.88;5112021;28;20445;-72
2021/07/24 00:31:46;;;;;;;8.65;3.20;;;;;;;20.47;71.02;99659.19;5113023;27;20509;-72
2021/07/24 00:34:32;;;;;;;14.68;3.35;;;;;;;20.43;71.24;99661.16;5098323;28;20031;-71
2021/07/24 00:37:19;;;;;;;14.63;3.20;;;;;;;20.42;71.14;99653.84;5113249;27;20036;-71
2021/07/24 00:40:05;;;;;;;11.82;3.22;;;;;;;20.40;70.76;99659.09;5079095;28;20050;-72
2021/07/24 00:42:51;;;;;;;9.30;2.70;;;;;;;20.39;70.86;99658.25;5099610;27;20061;-72
2021/07/24 00:45:47;;;;;;;12.75;3.10;;;;;;;20.36;70.75;99652.56;5097587;28;20099;-72
2021/07/24 00:48:35;;;;;;;13.65;3.38;;;;;;;20.36;70.94;99649.75;5111896;28;20072;-72
2021/07/24 00:51:29;;;;;;;14.30;3.58;;;;;;;20.36;71.17;99661.03;5109364;28;20693;-71
2021/07/24 00:54:14;;;;;;;12.93;3.28;;;;;;;20.33;71.12;99656.16;5097235;28;20036;-72
2021/07/24 00:57:00;;;;;;;11.60;2.80;;;;;;;20.25;71.63;99644.78;5102013;28;20067;-72
2021/07/24 00:59:46;;;;;;;13.15;3.00;;;;;;;20.20;71.28;99641.50;5090784;28;20036;-71
2021/07/24 01:02:32;;;;;;;10.00;3.10;;;;;;;20.25;70.93;99646.78;5105002;28;20042;-71
2021/07/24 01:05:18;;;;;;;9.82;3.25;;;;;;;20.24;71.23;99640.31;5097696;28;20560;-72
2021/07/24 01:08:04;;;;;;;12.30;3.80;;;;;;;20.13;71.28;99638.56;5109945;28;20051;-71
2021/07/24 01:10:50;;;;;;;15.15;3.20;;;;;;;20.09;72.12;99642.13;5108503;28;20641;-71
2021/07/24 01:13:35;;;;;;;9.73;3.00;;;;;;;20.09;71.75;99633.69;5066194;28;20047;-71
2021/07/24 01:16:21;;;;;;;10.50;3.20;;;;;;;20.04;71.88;99616.28;5072135;28;20522;-72
2021/07/24 01:19:07;;;;;;;11.32;3.40;;;;;;;20.04;72.11;99616.28;5112651;28;20685;-71
2021/07/24 01:21:53;;;;;;;9.07;3.33;;;;;;;20.06;71.94;99622.34;5097981;28;20031;-71
2021/07/24 01:24:39;;;;;;;11.25;2.90;;;;;;;20.05;72.01;99609.44;5114898;27;20027;-71
2021/07/24 01:27:25;;;;;;;12.38;3.10;;;;;;;20.04;71.93;99596.56;5112312;28;20130;-71
2021/07/24 01:30:11;;;;;;;11.10;3.00;;;;;;;20.02;71.71;99596.09;5081457;28;20036;-72
2021/07/24 01:32:58;;;;;;;9.05;2.75;;;;;;;20.00;71.90;99599.31;5109959;28;20027;-72
2021/07/24 01:35:48;;;;;;;13.57;3.47;;;;;;;19.98;71.66;99600.91;5111655;27;20039;-72
2021/07/24 01:38:36;;;;;;;14.23;3.75;;;;;;;19.96;71.71;99603.28;5110946;28;20039;-71
2021/07/24 01:41:22;;;;;;;11.05;2.80;;;;;;;19.89;71.57;99597.50;5103999;28;20064;-71
2021/07/24 01:44:08;;;;;;;9.65;3.35;;;;;;;19.90;71.20;99604.78;5114225;28;20652;-71
2021/07/24 01:46:54;;;;;;;12.57;3.42;;;;;;;19.85;71.51;99620.00;5110391;28;20119;-71
2021/07/24 01:52:47;;;;;;;9.77;3.30;;;;;;;19.69;72.26;99622.97;5109374;28;20168;-72
2021/07/24 01:55:59;;;;;;;12.50;3.42;;;;;;;19.66;72.22;99626.53;5083223;28;20034;-72
2021/07/24 01:58:45;;;;;;;11.52;3.40;;;;;;;19.64;72.23;99640.19;5101131;28;20387;-72
2021/07/24 02:01:31;;;;;;;11.52;3.40;;;;;;;19.59;72.00;99627.22;5067113;28;20070;-71
2021/07/24 02:04:19;;;;;;;9.18;3.13;;;;;;;19.56;72.29;99635.59;5058826;28;20032;-71
2021/07/24 02:07:07;;;;;;;10.20;3.20;;;;;;;19.50;72.18;99643.56;5080013;28;20031;-71
2021/07/24 02:09:52;;;;;;;9.40;3.33;;;;;;;19.51;72.17;99644.38;5072988;28;20031;-72
2021/07/24 02:12:38;;;;;;;9.70;3.63;;;;;;;19.49;71.75;99641.91;5080842;28;20031;-72
2021/07/24 02:15:24;;;;;;;9.15;3.22;;;;;;;19.41;72.33;99643.78;5069764;28;20408;-71
2021/07/24 02:18:13;;;;;;;11.48;3.70;;;;;;;19.40;72.62;99642.16;5062645;28;20031;-72
2021/07/24 02:20:58;;;;;;;10.35;3.33;;;;;;;19.39;72.03;99632.09;5068023;28;20542;-72
2021/07/24 02:23:44;;;;;;;10.82;3.10;;;;;;;19.34;72.51;99646.47;5067456;28;20142;-72
2021/07/24 02:26:30;;;;;;;9.93;3.20;;;;;;;19.35;72.07;99638.84;5066477;28;20032;-72
2021/07/24 02:29:16;;;;;;;11.52;3.55;;;;;;;19.29;72.96;99643.97;5075591;28;20041;-71
2021/07/24 02:32:03;;;;;;;9.90;3.45;;;;;;;19.26;73.00;99644.72;5099994;28;20122;-72
2021/07/24 02:34:49;;;;;;;11.65;3.42;;;;;;;19.23;72.98;99639.84;5080939;28;20032;-72
2021/07/24 02:37:35;;;;;;;8.68;3.30;;;;;;;19.20;73.12;99630.13;5091191;28;20035;-72
2021/07/24 02:40:21;;;;;;;11.15;3.25;;;;;;;19.22;73.46;99629.75;5057704;28;20171;-72
2021/07/24 02:43:07;;;;;;;14.20;3.88;;;;;;;19.17;73.57;99632.91;5088013;28;20036;-72
2021/07/24 02:45:53;;;;;;;12.63;3.97;;;;;;;19.14;73.87;99628.81;5070440;28;20042;-72
2021/07/24 02:48:39;;;;;;;10.85;4.00;;;;;;;19.09;74.42;99634.75;5086393;28;20039;-72
2021/07/24 02:51:24;;;;;;;10.95;3.67;;;;;;;19.09;74.22;99629.13;5094392;28;20079;-72
2021/07/24 02:54:10;;;;;;;9.95;3.45;;;;;;;19.07;73.82;99637.13;5074005;28;20132;-72
2021/07/24 02:56:56;;;;;;;9.88;3.85;;;;;;;19.11;73.46;99632.38;5076870;28;20472;-72
2021/07/24 02:59:42;;;;;;;10.15;3.88;;;;;;;19.08;73.48;99623.84;5084013;28;20039;-72
2021/07/24 03:02:28;;;;;;;10.82;3.50;;;;;;;19.07;73.45;99630.69;5110617;28;20093;-72
2021/07/24 03:05:13;;;;;;;10.88;4.03;;;;;;;18.98;73.24;99636.56;5102626;28;20035;-71
2021/07/24 03:07:59;;;;;;;11.70;4.55;;;;;;;19.01;73.94;99637.81;5114897;28;20047;-72
2021/07/24 03:10:45;;;;;;;13.40;4.53;;;;;;;18.94;73.91;99635.66;5084712;28;20035;-72
2021/07/24 03:13:31;;;;;;;10.60;3.83;;;;;;;18.90;73.92;99637.59;5109478;28;20447;-72
2021/07/24 03:16:17;;;;;;;10.60;4.05;;;;;;;18.87;74.01;99636.34;5105944;28;20077;-72
2021/07/24 03:19:03;;;;;;;12.45;3.95;;;;;;;18.89;73.84;99636.78;5105351;28;20046;-72
2021/07/24 03:21:48;;;;;;;9.93;3.80;;;;;;;18.88;73.60;99628.69;5095732;27;20131;-72
2021/07/24 03:24:34;;;;;;;8.57;3.40;;;;;;;18.83;74.09;99615.75;5091682;28;20138;-72
2021/07/24 03:27:20;;;;;;;12.02;4.35;;;;;;;18.81;74.11;99606.06;5086942;28;20127;-72
2021/07/24 03:30:07;;;;;;;10.77;4.25;;;;;;;18.81;74.00;99615.31;5069406;28;20058;-72
2021/07/24 03:32:53;;;;;;;9.07;3.90;;;;;;;18.75;74.05;99608.38;5079353;28;20071;-71
2021/07/24 03:35:39;;;;;;;10.50;3.70;;;;;;;18.70;74.73;99620.69;5084595;28;20046;-72
2021/07/24 03:38:25;;;;;;;11.38;4.13;;;;;;;18.64;74.62;99621.38;5070302;28;20035;-71
2021/07/24 03:41:10;;;;;;;11.77;3.63;;;;;;;18.60;74.33;99624.09;5064728;28;20035;-72
2021/07/24 03:43:56;;;;;;;10.02;3.80;;;;;;;18.57;74.53;99624.03;5064541;28;20127;-71
2021/07/24 03:46:42;;;;;;;6.80;3.55;;;;;;;18.55;74.46;99624.38;5113568;28;20034;-72
2021/07/24 03:49:28;;;;;;;10.68;4.18;;;;;;;18.56;74.40;99625.22;5112401;28;20396;-72
2021/07/24 03:52:13;;;;;;;8.40;3.53;;;;;;;18.51;74.78;99621.50;5112236;28;20043;-72
2021/07/24 03:54:59;;;;;;;10.32;3.40;;;;;;;18.47;74.64;99631.88;5071154;28;20420;-72
2021/07/24 03:57:45;;;;;;;9.27;3.60;;;;;;;18.43;74.94;99616.91;5111559;28;20291;-72
2021/07/24 04:00:39;;;;;;;10.07;3.85;;;;;;;18.38;74.85;99617.19;5106453;28;20027;-71
2021/07/24 04:03:25;;;;;;;10.00;3.85;;;;;;;18.36;74.92;99613.13;5116631;28;20373;-71
2021/07/24 04:06:20;;;;;;;7.20;3.55;;;;;;;18.34;75.40;99610.69;5113262;28;20380;-72
2021/07/24 04:09:07;;;;;;;8.07;3.85;;;;;;;18.33;75.10;99603.47;5099370;28;20047;-71
2021/07/24 04:11:53;;;;;;;8.30;3.75;;;;;;;18.31;75.36;99609.44;5097292;28;20038;-71
2021/07/24 04:14:40;;;;;;;11.52;4.63;;;;;;;18.29;75.75;99608.16;5089521;28;20035;-71
2021/07/24 04:17:26;;;;;;;7.13;3.70;;;;;;;18.29;75.39;99608.97;5073805;28;20040;-71
2021/07/24 04:20:12;;;;;;;9.93;4.20;;;;;;;18.30;75.36;99602.19;5066105;28;20041;-71
2021/07/24 04:22:58;;;;;;;10.15;4.15;;;;;;;18.28;75.58;99598.13;5095300;28;20535;-72
2021/07/24 04:25:44;;;;;;;7.57;3.58;;;;;;;18.26;75.15;99597.66;5076092;28;20047;-71
2021/07/24 04:28:30;;;;;;;9.27;3.70;;;;;;;18.23;75.60;99604.84;5075981;28;20066;-71
2021/07/24 04:31:15;;;;;;;10.23;3.70;;;;;;;18.25;75.64;99601.66;5080826;28;20047;-71
2021/07/24 04:34:01;;;;;;;10.05;4.13;;;;;;;18.19;75.83;99609.56;5059107;28;20035;-71
2021/07/24 04:36:47;;;;;;;10.80;3.72;;;;;;;18.19;75.67;99597.50;5075902;28;20031;-71
2021/07/24 04:39:33;;;;;;;10.82;4.03;;;;;;;18.19;75.79;99597.50;5083932;28;20043;-71
2021/07/24 04:42:18;;;;;;;9.05;3.78;;;;;;;18.18;75.65;99598.69;5078203;28;20071;-71
2021/07/24 04:45:05;;;;;;;11.05;4.28;;;;;;;18.18;75.93;99607.13;5099274;28;20035;-71
2021/07/24 04:47:51;;;;;;;9.23;3.90;;;;;;;18.08;77.03;99603.72;5075884;28;20404;-72
2021/07/24 04:50:44;;;;;;;11.50;4.03;;;;;;;18.07;77.20;99606.88;5079205;28;20124;-72
2021/07/24 04:53:30;;;;;;;13.98;4.32;;;;;;;18.05;77.21;99610.06;5061647;28;20024;-72
2021/07/24 04:56:16;;;;;;;11.15;4.03;;;;;;;18.05;76.90;99610.06;5083375;28;20039;-73
2021/07/24 04:59:02;;;;;;;10.32;4.45;;;;;;;18.04;76.45;99611.22;5098296;28;20118;-71
2021/07/24 05:01:48;;;;;;;9.35;4.05;;;;;;;18.04;76.53;99611.22;5084217;28;20044;-72
2021/07/24 05:04:34;;;;;;;11.20;4.10;;;;;;;18.05;76.61;99610.06;5114347;28;20120;-72
2021/07/24 05:07:19;;;;;;;9.63;4.10;;;;;;;18.07;76.62;99606.88;5086764;28;20032;-72
2021/07/24 05:10:08;;;;;;;11.13;4.10;;;;;;;18.05;76.17;99610.06;5104874;28;20144;-71
2021/07/24 05:12:54;;;;;;;9.07;4.55;;;;;;;18.11;77.03;99604.13;5103935;28;20050;-72
2021/07/24 05:15:40;;;;;;;11.23;3.90;;;;;;;18.11;77.03;99610.59;5095773;28;20077;-72
2021/07/24 05:18:26;;;;;;;9.85;3.83;;;;;;;18.09;76.57;99608.13;5115017;27;20024;-72
2021/07/24 05:21:16;;;;;;;10.98;4.05;;;;;;;18.12;76.59;99605.78;5105505;27;20069;-72
2021/07/24 05:24:02;;;;;;;9.48;3.90;;;;;;;18.13;77.33;99610.22;5099258;28;20039;-72
2021/07/24 05:26:48;;;;;;;9.38;4.07;;;;;;;18.17;76.23;99605.50;5113989;28;20040;-72
2021/07/24 05:29:34;;;;;;;10.27;4.43;;;;;;;18.14;77.95;99614.66;5110496;28;20039;-72
2021/07/24 05:32:19;;;;;;;9.13;4.28;;;;;;;18.15;78.25;99613.47;5111275;28;20035;-72
2021/07/24 05:35:06;;;;;;;11.95;4.20;;;;;;;18.22;78.06;99619.25;5094604;28;20031;-72
2021/07/24 05:37:52;;;;;;;10.95;4.55;;;;;;;18.27;78.19;99621.75;5107969;28;20050;-75
2021/07/24 05:40:38;;;;;;;10.43;4.18;;;;;;;18.38;77.80;99622.00;5071685;28;20036;-75
2021/07/24 05:43:24;;;;;;;11.93;4.10;;;;;;;18.50;79.63;99617.06;5097079;28;20039;-74
2021/07/24 05:46:09;;;;;;;7.63;4.05;;;;;;;18.69;78.67;99616.28;5109783;28;20036;-74
2021/07/24 05:48:55;;;;;;;8.35;3.80;;;;;;;18.85;76.77;99621.00;5093498;28;20480;-72
2021/07/24 05:51:41;;;;;;;8.27;4.03;;;;;;;19.04;77.26;99612.53;5090415;28;20052;-72
2021/07/24 05:54:27;;;;;;;12.20;3.85;;;;;;;19.26;77.34;99615.75;5079994;28;20075;-72
2021/07/24 05:57:12;;;;;;;9.93;3.58;;;;;;;19.45;76.68;99621.34;5109701;28;20028;-72
2021/07/24 05:59:58;;;;;;;9.30;3.70;;;;;;;19.64;74.98;99617.63;5102656;28;20123;-72
2021/07/24 06:02:44;;;;;;;11.02;3.72;;;;;;;19.81;74.21;99624.78;5112108;28;20050;-72
2021/07/24 06:05:30;;;;;;;12.40;4.10;;;;;;;19.98;75.39;99621.44;5110548;27;20092;-72
2021/07/24 06:08:16;;;;;;;7.10;3.38;;;;;;;20.15;74.25;99619.25;5109160;28;20128;-72
2021/07/24 06:11:02;;;;;;;7.88;3.63;;;;;;;20.33;73.65;99622.31;5111449;28;20027;-72
2021/07/24 06:13:48;;;;;;;7.55;3.72;;;;;;;20.49;72.97;99622.94;5081303;28;20040;-72
2021/07/24 06:16:36;;;;;;;11.68;3.97;;;;;;;20.64;73.35;99616.31;5081865;27;20561;-71
2021/07/24 06:19:22;;;;;;;9.40;3.80;;;;;;;20.79;72.99;99614.50;5084945;28;20042;-72
2021/07/24 06:22:08;;;;;;;8.98;3.58;;;;;;;20.96;72.14;99621.53;5070977;28;20071;-72
2021/07/24 06:24:54;;;;;;;7.18;3.25;;;;;;;21.12;71.63;99627.78;5067692;28;20035;-72
2021/07/24 06:27:43;;;;;;;8.65;3.33;;;;;;;21.30;72.14;99624.31;5095762;28;20032;-72
2021/07/24 06:30:28;;;;;;;6.50;3.28;;;;;;;21.47;71.06;99623.69;5079731;28;20038;-72
2021/07/24 06:33:14;;;;;;;8.50;3.10;;;;;;;21.57;71.56;99623.00;5080069;28;20466;-72
2021/07/24 06:36:00;;;;;;;9.35;3.40;;;;;;;21.74;70.68;99621.53;5111174;28;20039;-72
2021/07/24 06:38:46;;;;;;;12.38;3.17;;;;;;;21.84;71.01;99620.81;5100383;28;20093;-72
2021/07/24 06:41:34;;;;;;;7.13;3.00;;;;;;;21.97;70.72;99626.94;5111077;28;20046;-72
2021/07/24 06:44:21;;;;;;;6.95;3.35;;;;;;;22.07;70.02;99625.41;5111598;28;20051;-72
2021/07/24 06:47:08;;;;;;;5.45;2.60;;;;;;;22.16;70.30;99616.56;5108657;28;20036;-72
2021/07/24 06:49:53;;;;;;;7.55;2.90;;;;;;;22.23;69.67;99619.47;5110616;28;20027;-72
2021/07/24 06:52:39;;;;;;;8.52;2.65;;;;;;;22.30;69.39;99613.84;5108043;28;20047;-72
2021/07/24 06:55:28;;;;;;;5.68;2.10;;;;;;;22.42;69.26;99610.69;5097307;28;20053;-72
2021/07/24 06:58:14;;;;;;;5.90;2.30;;;;;;;22.47;69.11;99606.66;5111276;28;20047;-72
2021/07/24 07:01:00;;;;;;;6.75;2.80;;;;;;;22.55;68.86;99607.53;5094943;28;20035;-72
2021/07/24 07:03:45;;;;;;;8.77;2.72;;;;;;;22.55;68.65;99602.66;5109757;28;20042;-72
2021/07/24 07:06:31;;;;;;;6.15;2.22;;;;;;;22.63;68.46;99598.66;5093919;28;20396;-72
2021/07/24 07:09:17;;;;;;;6.57;2.28;;;;;;;22.65;67.94;99601.09;5110043;28;20028;-72
2021/07/24 07:12:03;;;;;;;6.60;2.38;;;;;;;22.61;68.13;99594.59;5108796;28;20110;-72
2021/07/24 07:14:49;;;;;;;5.78;1.95;;;;;;;22.61;67.79;99595.41;5099823;28;20036;-72
2021/07/24 07:17:35;;;;;;;6.63;2.08;;;;;;;22.58;67.72;99612.38;5101847;28;20036;-72
2021/07/24 07:20:21;;;;;;;7.47;2.28;;;;;;;22.56;67.80;99604.28;5116144;28;20116;-72
2021/07/24 07:23:07;;;;;;;7.97;2.17;;;;;;;22.48;68.03;99611.94;5100555;28;20655;-72
2021/07/24 07:25:53;;;;;;;4.68;2.10;;;;;;;22.45;67.94;99615.53;5112676;28;20039;-72
2021/07/24 07:28:39;;;;;;;7.35;2.30;;;;;;;22.47;68.10;99612.34;5112838;28;20027;-72
2021/07/24 07:31:25;;;;;;;6.65;2.08;;;;;;;22.45;68.35;99618.38;5110806;28;20425;-72
2021/07/24 07:34:10;;;;;;;6.32;1.95;;;;;;;22.51;68.31;99613.97;5111107;28;20059;-72
2021/07/24 07:36:56;;;;;;;6.20;2.13;;;;;;;22.53;68.35;99620.03;5107031;28;20053;-72
2021/07/24 07:39:42;;;;;;;7.25;2.30;;;;;;;22.60;68.33;99613.63;5102211;28;20483;-72
2021/07/24 07:42:28;;;;;;;5.65;1.90;;;;;;;22.60;67.88;99607.16;5085315;28;20038;-75
2021/07/24 07:45:14;;;;;;;7.28;2.30;;;;;;;22.64;67.42;99605.13;5082333;28;20055;-74
2021/07/24 07:48:00;;;;;;;5.80;2.30;;;;;;;22.68;67.23;99614.47;5108332;27;20035;-75
2021/07/24 07:50:46;;;;;;;7.45;2.40;;;;;;;22.68;67.09;99622.94;5096432;28;20044;-75
2021/07/24 07:53:31;;;;;;;7.32;2.08;;;;;;;22.71;66.93;99622.97;5097384;28;20030;-75
2021/07/24 07:56:17;;;;;;;6.78;2.45;;;;;;;22.73;66.77;99623.38;5100936;28;20149;-75
2021/07/24 07:59:03;;;;;;;5.65;2.17;;;;;;;22.72;67.13;99620.94;5083879;28;20040;-67
2021/07/24 08:01:49;;;;;;;7.63;2.33;;;;;;;22.71;67.27;99613.66;5110814;28;20120;-67
2021/07/24 08:04:35;;;;;;;7.30;2.42;;;;;;;22.73;67.65;99609.22;5112824;28;20031;-67
2021/07/24 08:07:21;;;;;;;6.88;2.50;;;;;;;22.78;67.03;99610.03;5077887;28;20028;-67
2021/07/24 08:10:07;;;;;;;5.88;2.38;;;;;;;22.79;66.93;99606.00;5105397;28;20122;-65
2021/07/24 08:12:53;;;;;;;9.38;2.58;;;;;;;22.82;67.25;99610.88;5095311;28;20112;-67
2021/07/24 08:15:39;;;;;;;9.65;2.88;;;;;;;22.82;67.05;99611.69;5074791;28;20047;-65
2021/07/24 08:18:24;;;;;;;7.85;2.22;;;;;;;22.89;67.13;99605.22;5069950;28;20044;-65
2021/07/24 08:21:10;;;;;;;7.38;2.30;;;;;;;22.91;66.51;99606.44;5076112;28;20035;-66
2021/07/24 08:23:56;;;;;;;8.32;2.78;;;;;;;23.08;66.25;99607.75;5095146;28;20111;-66
2021/07/24 08:26:42;;;;;;;7.53;2.03;;;;;;;23.21;65.55;99599.69;5074066;28;20421;-65
2021/07/24 08:29:28;;;;;;;6.47;1.95;;;;;;;23.39;65.56;99605.38;5113385;28;20020;-65
2021/07/24 08:32:13;;;;;;;7.15;2.50;;;;;;;23.56;64.90;99598.09;5076403;28;20032;-66
2021/07/24 08:34:59;;;;;;;6.63;2.28;;;;;;;23.72;64.27;99595.69;5086627;28;20043;-66
2021/07/24 08:37:45;;;;;;;8.68;2.20;;;;;;;23.90;64.14;99597.69;5083771;28;20039;-65
2021/07/24 08:40:31;;;;;;;6.03;2.20;;;;;;;24.03;63.32;99591.19;5084030;28;20041;-66
2021/07/24 08:43:17;;;;;;;5.68;1.83;;;;;;;24.11;62.75;99589.16;5096282;28;20036;-65
2021/07/24 08:46:02;;;;;;;6.25;2.13;;;;;;;24.26;62.43;99579.38;5076216;28;20089;-65
2021/07/24 08:48:48;;;;;;;5.07;1.90;;;;;;;24.43;62.58;99572.09;5083841;28;20111;-65
2021/07/24 08:51:36;;;;;;;5.90;2.25;;;;;;;24.64;61.72;99574.00;5072135;28;20064;-65
2021/07/24 08:54:21;;;;;;;5.32;1.90;;;;;;;24.82;60.84;99582.44;5066271;28;20043;-65
2021/07/24 08:57:07;;;;;;;4.93;2.35;;;;;;;24.89;59.96;99588.09;5098233;28;20092;-65
2021/07/24 08:59:56;;;;;;;5.93;2.15;;;;;;;25.02;61.42;99593.28;5081637;28;20032;-66
2021/07/24 09:02:43;;;;;;;6.95;2.47;;;;;;;24.97;63.71;99597.38;5071345;28;20038;-66
2021/07/24 09:05:30;;;;;;;9.77;2.63;;;;;;;24.83;64.18;99594.63;5095596;28;20051;-65
2021/07/24 09:08:16;;;;;;;11.55;2.50;;;;;;;24.64;64.36;99595.91;5074663;28;20048;-66
2021/07/24 09:11:02;;;;;;;9.85;2.47;;;;;;;24.36;65.22;99591.94;5083054;28;20028;-65
2021/07/24 09:13:48;;;;;;;7.75;2.30;;;;;;;24.11;65.21;99594.84;5083433;27;20094;-68
2021/07/24 09:16:34;;;;;;;8.98;2.70;;;;;;;23.83;66.05;99587.97;5081432;28;20070;-68
2021/07/24 09:19:19;;;;;;;7.57;2.47;;;;;;;23.57;66.33;99592.03;5067582;28;20442;-65
2021/07/24 09:22:23;;;;;;;8.27;2.38;;;;;;;23.29;66.96;99597.66;5094674;28;20046;-65
2021/07/24 09:25:18;;;;;;;9.93;2.63;;;;;;;23.05;67.48;99596.41;5084737;28;20066;-65
2021/07/24 09:28:10;;;;;;;7.78;2.25;;;;;;;22.88;68.15;99598.75;5096568;28;20036;-66
2021/07/24 09:30:55;;;;;;;7.78;2.38;;;;;;;22.73;70.03;99591.41;5089894;28;20388;-65
2021/07/24 09:33:49;;;;;;;8.23;2.03;;;;;;;22.68;71.37;99586.16;5107157;28;20028;-65
2021/07/24 09:36:35;;;;;;;6.97;2.63;;;;;;;22.68;72.10;99586.16;5096966;28;20156;-65
2021/07/24 09:39:21;;;;;;;6.10;2.00;;;;;;;22.74;72.42;99581.72;5098258;28;20111;-66
2021/07/24 09:42:11;;;;;;;7.95;2.30;;;;;;;22.86;72.44;99586.22;5068473;28;20042;-65
2021/07/24 09:45:07;;;;;;;4.95;1.95;;;;;;;22.95;72.29;99593.13;5079088;28;20064;-66
2021/07/24 09:47:54;;;;;;;5.90;1.90;;;;;;;23.11;72.15;99594.81;5095262;28;20035;-66
2021/07/24 09:50:41;;;;;;;6.45;1.90;;;;;;;23.24;71.81;99592.41;5080644;28;20507;-66
2021/07/24 09:53:42;;;;;;;7.68;2.13;;;;;;;23.32;71.34;99592.00;5093048;28;20047;-66
2021/07/24 09:56:41;;;;;;;6.38;2.03;;;;;;;23.40;71.19;99595.63;5095304;28;20042;-66
2021/07/24 09:59:31;;;;;;;7.47;2.28;;;;;;;23.45;71.32;99589.56;5089176;28;20048;-66
2021/07/24 10:02:30;;;;;;;5.93;2.20;;;;;;;23.51;72.67;99582.28;5099177;28;20057;-67
2021/07/24 10:05:18;;;;;;;9.27;2.60;;;;;;;23.55;72.54;99587.97;5099345;28;20092;-66
2021/07/24 10:08:12;;;;;;;6.07;2.30;;;;;;;23.57;71.69;99591.22;5082653;28;20047;-65
2021/07/24 10:10:58;;;;;;;5.63;1.98;;;;;;;23.61;70.62;99584.31;5089123;28;20143;-65
2021/07/24 10:13:44;;;;;;;5.80;2.70;;;;;;;23.63;69.71;99587.56;5094458;28;20084;-65
2021/07/24 10:16:30;;;;;;;10.65;2.53;;;;;;;23.68;70.56;99594.03;5098178;28;20043;-65
2021/07/24 10:19:20;;;;;;;8.13;2.42;;;;;;;23.72;70.24;99594.88;5096154;28;20275;-65
2021/07/24 10:22:06;;;;;;;12.43;2.67;;;;;;;23.74;69.40;99586.78;5073512;28;20067;-65
2021/07/24 10:24:52;;;;;;;9.07;2.20;;;;;;;23.80;69.16;99590.84;5099756;28;20122;-65
2021/07/24 10:27:38;;;;;;;6.38;2.50;;;;;;;23.83;69.23;99590.81;5095438;28;20061;-65
2021/07/24 10:30:30;;;;;;;5.72;2.10;;;;;;;23.91;69.11;99588.78;5077906;28;20036;-65
2021/07/24 10:33:15;;;;;;;5.07;2.25;;;;;;;23.95;69.00;99595.25;5095274;28;20028;-65
2021/07/24 10:36:19;;;;;;;6.82;2.55;;;;;;;24.00;69.50;99591.22;5057856;28;20055;-65
2021/07/24 10:39:17;;;;;;;4.72;2.33;;;;;;;24.05;68.64;99585.13;5083904;28;20067;-65
2021/07/24 10:42:10;;;;;;;4.68;2.25;;;;;;;24.04;68.72;99600.50;5083100;28;20043;-65
2021/07/24 10:44:56;;;;;;;8.68;2.42;;;;;;;24.00;67.97;99599.72;5076448;28;20488;-66
2021/07/24 10:48:22;;;;;;;5.20;2.28;;;;;;;24.01;67.83;99589.97;5097031;28;20027;-66
2021/07/24 10:51:07;;;;;;;5.85;1.70;;;;;;;23.94;67.13;99607.03;5085046;28;20050;-66
2021/07/24 10:54:02;;;;;;;6.82;2.33;;;;;;;23.73;68.17;99605.00;5116483;28;20032;-66
2021/07/24 10:56:48;;;;;;;7.55;2.10;;;;;;;23.68;68.01;99606.19;5107824;28;20054;-66
2021/07/24 10:59:34;;;;;;;8.55;2.10;;;;;;;23.49;68.24;99606.59;5095208;28;20050;-66
2021/07/24 11:02:48;;;;;;;6.30;2.15;;;;;;;23.35;68.76;99613.88;5095363;28;20035;-66
2021/07/24 11:05:37;;;;;;;7.07;2.70;;;;;;;23.21;68.85;99599.69;5090603;28;20039;-66
2021/07/24 11:08:57;;;;;;;4.93;2.28;;;;;;;23.04;69.20;99608.94;5094231;28;20043;-66
2021/07/24 11:11:45;;;;;;;5.13;2.05;;;;;;;22.82;69.69;99600.34;5104932;28;20040;-66
2021/07/24 11:14:37;;;;;;;7.25;2.30;;;;;;;22.70;69.93;99598.69;5074867;28;20567;-66
2021/07/24 11:17:23;;;;;;;5.30;2.60;;;;;;;22.61;70.19;99597.44;5112396;28;20066;-66
2021/07/24 11:20:09;;;;;;;8.98;2.78;;;;;;;22.48;70.05;99589.31;5102061;27;20036;-66
2021/07/24 11:22:58;;;;;;;5.38;2.22;;;;;;;22.32;70.88;99583.16;5094229;28;20047;-66
2021/07/24 11:25:46;;;;;;;6.63;2.75;;;;;;;22.18;71.29;99585.94;5087375;27;20118;-64
2021/07/24 11:28:32;;;;;;;7.55;2.40;;;;;;;22.07;71.55;99580.16;5084722;28;20547;-65
2021/07/24 11:31:19;;;;;;;5.13;2.55;;;;;;;21.93;72.00;99574.44;5081044;28;20038;-64
2021/07/24 11:34:04;;;;;;;5.47;2.60;;;;;;;21.81;71.94;99582.03;5090571;28;20519;-64
2021/07/24 11:36:50;;;;;;;8.20;2.65;;;;;;;21.74;72.57;99576.31;5085031;28;20034;-65
2021/07/24 11:39:36;;;;;;;6.97;2.40;;;;;;;21.70;73.05;99574.66;5086471;28;20043;-64
2021/07/24 11:42:22;;;;;;;5.45;2.17;;;;;;;21.61;73.25;99572.97;5114752;28;20049;-64
2021/07/24 11:45:08;;;;;;;5.03;2.58;;;;;;;21.59;73.96;99577.38;5099341;27;20031;-64
2021/07/24 11:48:10;;;;;;;5.53;2.75;;;;;;;21.57;74.31;99577.78;5099124;28;20043;-65
2021/07/24 11:51:01;;;;;;;8.18;3.00;;;;;;;21.49;75.55;99564.81;5095107;28;20050;-65
2021/07/24 11:53:49;;;;;;;7.57;2.90;;;;;;;21.52;75.46;99572.50;5068566;28;20038;-65
2021/07/24 11:56:35;;;;;;;6.38;2.35;;;;;;;21.48;75.55;99568.84;5096240;28;20554;-64
2021/07/24 11:59:21;;;;;;;4.25;2.53;;;;;;;21.47;75.77;99575.69;5097794;28;20035;-65
2021/07/24 12:02:11;;;;;;;4.70;2.70;;;;;;;21.37;75.97;99565.94;5092149;27;20090;-65
2021/07/24 12:04:57;;;;;;;7.47;3.00;;;;;;;21.33;75.98;99567.06;5071757;28;20035;-64
2021/07/24 12:07:43;;;;;;;6.93;2.83;;;;;;;21.29;76.06;99557.75;5098098;28;20122;-64
2021/07/24 12:10:29;;;;;;;7.35;2.35;;;;;;;21.26;76.13;99558.53;5071708;28;20106;-64
2021/07/24 12:13:20;;;;;;;7.13;2.80;;;;;;;21.23;75.84;99556.47;5075613;28;20078;-64
2021/07/24 12:16:07;;;;;;;4.28;2.10;;;;;;;21.16;76.23;99552.38;5067492;28;20054;-64
2021/07/24 12:18:52;;;;;;;6.93;2.40;;;;;;;21.07;76.53;99551.91;5094760;28;20028;-64
2021/07/24 12:21:38;;;;;;;6.05;2.58;;;;;;;20.98;76.65;99545.78;5114071;28;20543;-64
2021/07/24 12:24:24;;;;;;;7.93;3.00;;;;;;;20.96;76.62;99539.69;5099523;28;20082;-64
2021/07/24 12:27:18;;;;;;;7.38;2.80;;;;;;;20.92;76.92;99547.31;5084784;28;20046;-65
2021/07/24 12:30:04;;;;;;;;;;;;;;;20.87;76.95;99542.84;5105331;28;20055;-64
2021/07/24 12:32:49;;;;;;;6.20;2.40;;;;;;;20.77;77.38;99545.53;5112799;28;20015;-64
2021/07/24 12:35:35;;;;;;;6.53;2.67;;;;;;;20.76;77.36;99539.09;5101782;28;20036;-65
2021/07/24 12:38:26;;;;;;;4.90;2.40;;;;;;;20.63;77.78;99541.34;5082496;28;20036;-65
2021/07/24 12:41:12;;;;;;;8.82;2.58;;;;;;;20.59;77.55;99543.34;5060139;28;20074;-64
2021/07/24 12:44:01;;;;;;;8.27;2.55;;;;;;;20.61;77.67;99538.09;5088882;28;20040;-64
2021/07/24 12:47:12;;;;;;;7.82;2.53;;;;;;;20.49;77.96;99547.59;5112183;28;20032;-64
2021/07/24 12:49:58;;;;;;;7.70;2.60;;;;;;;20.42;77.66;99546.69;5082876;28;20063;-64
2021/07/24 12:52:45;;;;;;;5.38;2.25;;;;;;;20.38;78.39;99548.69;5069933;28;20051;-64
2021/07/24 12:55:33;;;;;;;6.03;2.42;;;;;;;20.35;78.54;99553.06;5072489;28;20032;-64
2021/07/24 12:58:19;;;;;;;5.40;2.50;;;;;;;20.30;78.56;99547.78;5073012;28;20044;-64
2021/07/24 13:01:09;;;;;;;7.95;2.47;;;;;;;20.24;79.12;99557.75;5076125;28;20094;-64
2021/07/24 13:03:55;;;;;;;4.60;2.20;;;;;;;20.23;79.13;99554.13;5075142;28;20399;-64
2021/07/24 13:06:41;;;;;;;6.43;2.50;;;;;;;20.16;79.90;99556.84;5094412;28;20035;-64
2021/07/24 13:09:26;;;;;;;6.90;2.70;;;;;;;20.20;79.72;99556.91;5051944;28;20115;-64